createdAt,value
2023-04-02T00:00:19.121Z,9.15
2023-04-02T00:02:49.970Z,9.12
2023-04-02T00:05:50.511Z,9.15
2023-04-02T00:08:31.245Z,9.10
2023-04-02T00:11:00.685Z,9.14
2023-04-02T00:13:35.733Z,9.10
2023-04-02T00:16:06.719Z,9.05
2023-04-02T00:18:40.522Z,9.01
2023-04-02T00:21:13.762Z,9.00
2023-04-02T00:23:43.863Z,8.97
2023-04-02T00:26:30.540Z,8.93
2023-04-02T00:29:01.120Z,8.82
2023-04-02T00:31:30.658Z,8.87
2023-04-02T00:34:00.475Z,8.85
2023-04-02T00:36:34.032Z,8.81
2023-04-02T00:39:05.948Z,8.78
2023-04-02T00:41:36.317Z,8.74
2023-04-02T00:44:07.122Z,8.72
2023-04-02T00:46:47.183Z,8.68
2023-04-02T00:49:31.765Z,8.60
2023-04-02T00:52:03.589Z,8.60
2023-04-02T00:54:38.325Z,8.55
2023-04-02T00:57:12.980Z,8.48
2023-04-02T00:59:55.688Z,8.49
2023-04-02T01:02:30.373Z,8.49
2023-04-02T01:05:00.896Z,8.48
2023-04-02T01:07:59.359Z,8.38
2023-04-02T01:10:54.778Z,8.34
2023-04-02T01:13:31.404Z,8.32
2023-04-02T01:16:08.520Z,8.28
2023-04-02T01:18:51.433Z,8.30
2023-04-02T01:21:32.730Z,8.27
2023-04-02T01:24:05.601Z,8.23
2023-04-02T01:26:53.466Z,8.29
2023-04-02T01:29:27.181Z,8.26
2023-04-02T01:31:58.398Z,8.18
2023-04-02T01:34:28.891Z,8.15
2023-04-02T01:37:10.357Z,8.03
2023-04-02T01:39:58.248Z,7.97
2023-04-02T01:42:31.134Z,8.08
2023-04-02T01:45:06.352Z,8.11
2023-04-02T01:47:34.733Z,8.12
2023-04-02T01:50:06.320Z,8.03
2023-04-02T01:52:41.705Z,7.99
2023-04-02T01:55:13.185Z,8.05
2023-04-02T01:57:43.728Z,7.90
2023-04-02T02:00:16.178Z,7.94
2023-04-02T02:02:50.196Z,7.94
2023-04-02T02:05:21.300Z,7.89
2023-04-02T02:07:51.371Z,7.75
2023-04-02T02:10:25.434Z,7.77
2023-04-02T02:12:53.897Z,7.83
2023-04-02T02:15:24.853Z,7.84
2023-04-02T02:17:59.020Z,7.85
2023-04-02T02:20:29.280Z,7.84
2023-04-02T02:23:00.179Z,7.75
2023-04-02T02:25:32.376Z,7.78
2023-04-02T02:28:06.337Z,7.81
2023-04-02T02:30:39.496Z,7.72
2023-04-02T02:33:18.073Z,7.58
2023-04-02T02:35:53.894Z,7.67
2023-04-02T02:38:54.344Z,7.67
2023-04-02T02:41:48.416Z,7.68
2023-04-02T02:44:22.682Z,7.65
2023-04-02T02:46:55.738Z,7.63
2023-04-02T02:49:29.103Z,7.61
2023-04-02T02:52:03.024Z,7.57
2023-04-02T02:54:44.054Z,7.53
2023-04-02T02:57:19.146Z,7.53
2023-04-02T02:59:49.672Z,7.49
2023-04-02T03:02:20.433Z,7.47
2023-04-02T03:04:53.085Z,7.45
2023-04-02T03:07:26.598Z,7.42
2023-04-02T03:10:06.721Z,7.48
2023-04-02T03:12:45.143Z,7.48
2023-04-02T03:15:21.328Z,7.45
2023-04-02T03:17:56.978Z,7.46
2023-04-02T03:20:30.992Z,7.44
2023-04-02T03:23:06.920Z,7.45
2023-04-02T03:25:43.452Z,7.38
2023-04-02T03:28:18.043Z,7.39
2023-04-02T03:30:51.659Z,7.44
2023-04-02T03:33:26.432Z,7.37
2023-04-02T03:36:01.423Z,7.44
2023-04-02T03:38:32.202Z,7.40
2023-04-02T03:41:05.430Z,7.37
2023-04-02T03:43:40.765Z,7.40
2023-04-02T03:46:21.852Z,7.31
2023-04-02T03:48:54.057Z,7.29
2023-04-02T03:51:27.659Z,7.35
2023-04-02T03:53:57.208Z,7.31
2023-04-02T03:56:31.598Z,7.34
2023-04-02T03:59:11.657Z,7.35
2023-04-02T04:01:46.618Z,7.32
2023-04-02T04:04:20.139Z,7.28
2023-04-02T04:06:52.470Z,7.32
2023-04-02T04:09:26.239Z,7.29
2023-04-02T04:11:59.698Z,7.34
2023-04-02T04:14:32.129Z,7.24
2023-04-02T04:17:09.490Z,7.27
2023-04-02T04:19:45.637Z,7.30
2023-04-02T04:22:19.058Z,7.33
2023-04-02T04:24:50.954Z,7.31
2023-04-02T04:27:34.686Z,7.31
2023-04-02T04:30:07.146Z,7.33
2023-04-02T04:32:42.870Z,7.26
2023-04-02T04:35:26.182Z,7.24
2023-04-02T04:37:59.836Z,7.20
2023-04-02T04:40:31.408Z,7.25
2023-04-02T04:43:04.860Z,7.26
2023-04-02T04:45:41.788Z,7.23
2023-04-02T04:48:14.566Z,7.18
2023-04-02T04:50:52.017Z,7.17
2023-04-02T04:53:23.296Z,7.18
2023-04-02T04:55:59.723Z,7.19
2023-04-02T04:58:45.411Z,7.15
2023-04-02T05:01:18.948Z,7.13
2023-04-02T05:03:55.209Z,7.14
2023-04-02T05:06:36.292Z,7.19
2023-04-02T05:09:14.491Z,7.14
2023-04-02T05:11:47.124Z,7.16
2023-04-02T05:14:23.543Z,7.19
2023-04-02T05:16:58.787Z,7.15
2023-04-02T05:19:33.053Z,7.14
2023-04-02T05:22:07.400Z,7.19
2023-04-02T05:24:46.718Z,7.20
2023-04-02T05:27:24.846Z,7.22
2023-04-02T05:29:57.204Z,7.25
2023-04-02T05:32:31.392Z,7.29
2023-04-02T05:34:59.955Z,7.33
2023-04-02T05:37:31.474Z,7.32
2023-04-02T05:40:12.912Z,7.35
2023-04-02T05:42:46.768Z,7.33
2023-04-02T05:45:24.272Z,7.38
2023-04-02T05:47:59.969Z,7.42
2023-04-02T05:50:37.410Z,7.46
2023-04-02T05:53:14.914Z,7.55
2023-04-02T05:55:50.728Z,7.63
2023-04-02T06:01:15.399Z,7.84
2023-04-02T06:03:51.512Z,7.97
2023-04-02T06:06:28.344Z,8.03
2023-04-02T06:09:01.534Z,8.18
2023-04-02T06:11:33.261Z,8.28
2023-04-02T06:14:04.682Z,8.42
2023-04-02T06:16:34.420Z,8.47
2023-04-02T06:19:09.336Z,8.58
2023-04-02T06:21:45.094Z,8.66
2023-04-02T06:24:21.093Z,8.75
2023-04-02T06:26:54.432Z,8.87
2023-04-02T06:29:30.534Z,9.01
2023-04-02T06:32:02.248Z,9.10
2023-04-02T06:34:33.011Z,9.19
2023-04-02T06:37:15.169Z,9.25
2023-04-02T06:39:46.011Z,9.35
2023-04-02T06:42:21.220Z,9.37
2023-04-02T06:45:17.685Z,9.47
2023-04-02T06:47:58.370Z,9.53
2023-04-02T06:50:45.486Z,9.53
2023-04-02T06:53:22.836Z,9.66
2023-04-02T06:55:57.771Z,9.77
2023-04-02T06:58:30.255Z,9.85
2023-04-02T07:00:58.609Z,9.92
2023-04-02T07:03:56.593Z,10.06
2023-04-02T07:06:37.072Z,10.16
2023-04-02T07:09:05.582Z,10.27
2023-04-02T07:11:36.622Z,10.38
2023-04-02T07:14:07.035Z,10.44
2023-04-02T07:16:36.791Z,10.42
2023-04-02T07:19:05.244Z,10.44
2023-04-02T07:21:36.166Z,10.58
2023-04-02T07:24:04.318Z,10.62
2023-04-02T07:26:32.927Z,10.71
2023-04-02T07:29:02.379Z,10.74
2023-04-02T07:31:30.616Z,10.74
2023-04-02T07:34:00.777Z,10.88
2023-04-02T07:36:30.687Z,11.13
2023-04-02T07:38:59.000Z,11.37
2023-04-02T07:41:27.582Z,11.44
2023-04-02T07:43:55.665Z,11.51
2023-04-02T07:46:26.013Z,11.67
2023-04-02T07:48:54.164Z,11.83
2023-04-02T07:51:24.001Z,11.89
2023-04-02T07:53:55.853Z,11.99
2023-04-02T07:56:27.332Z,12.16
2023-04-02T07:58:55.378Z,12.29
2023-04-02T08:01:26.845Z,12.38
2023-04-02T08:03:56.868Z,12.52
2023-04-02T08:06:26.134Z,12.86
2023-04-02T08:08:54.466Z,13.11
2023-04-02T08:11:22.497Z,13.11
2023-04-02T08:13:50.678Z,13.03
2023-04-02T08:16:20.202Z,12.91
2023-04-02T08:18:49.709Z,12.74
2023-04-02T08:21:17.897Z,12.77
2023-04-02T08:23:46.384Z,12.93
2023-04-02T08:26:18.521Z,13.01
2023-04-02T08:28:46.704Z,13.26
2023-04-02T08:31:14.967Z,13.56
2023-04-02T08:33:43.916Z,13.62
2023-04-02T08:36:19.656Z,13.74
2023-04-02T08:38:53.031Z,13.76
2023-04-02T08:41:29.833Z,13.74
2023-04-02T08:44:09.805Z,13.93
2023-04-02T08:46:45.533Z,14.40
2023-04-02T08:49:16.128Z,14.71
2023-04-02T08:51:47.467Z,14.71
2023-04-02T08:54:32.128Z,14.97
2023-04-02T08:57:04.171Z,15.06
2023-04-02T08:59:35.204Z,15.31
2023-04-02T09:02:28.777Z,15.55
2023-04-02T09:04:59.487Z,15.75
2023-04-02T09:07:29.294Z,16.10
2023-04-02T09:10:37.329Z,16.21
2023-04-02T09:13:14.707Z,16.51
2023-04-02T09:15:45.986Z,16.25
2023-04-02T09:18:17.055Z,16.30
2023-04-02T09:20:48.283Z,16.66
2023-04-02T09:23:21.624Z,17.00
2023-04-02T09:26:03.353Z,17.35
2023-04-02T09:28:40.292Z,17.47
2023-04-02T09:31:18.111Z,17.83
2023-04-02T09:33:50.254Z,18.09
2023-04-02T09:36:26.411Z,18.33
2023-04-02T09:39:06.956Z,18.30
2023-04-02T09:41:37.414Z,18.46
2023-04-02T09:44:31.198Z,18.37
2023-04-02T09:47:03.515Z,18.63
2023-04-02T09:49:33.788Z,18.50
2023-04-02T09:52:20.983Z,18.73
2023-04-02T09:55:17.802Z,18.88
2023-04-02T09:57:47.431Z,19.00
2023-04-02T10:03:04.998Z,19.16
2023-04-02T10:08:10.241Z,18.86
2023-04-02T10:10:43.184Z,18.33
2023-04-02T10:13:21.924Z,17.73
2023-04-02T10:15:57.167Z,17.69
2023-04-02T10:18:37.885Z,18.19
2023-04-02T10:21:07.306Z,18.61
2023-04-02T10:23:36.275Z,18.46
2023-04-02T10:26:23.348Z,18.46
2023-04-02T10:29:13.039Z,18.66
2023-04-02T10:31:48.616Z,18.87
2023-04-02T10:34:22.799Z,18.63
2023-04-02T10:36:54.474Z,18.68
2023-04-02T10:39:28.323Z,18.70
2023-04-02T10:42:07.369Z,18.05
2023-04-02T10:44:49.890Z,17.83
2023-04-02T10:47:27.975Z,17.52
2023-04-02T10:50:09.196Z,17.89
2023-04-02T10:52:43.202Z,18.73
2023-04-02T10:55:18.146Z,18.96
2023-04-02T10:57:48.370Z,18.87
2023-04-02T11:00:23.595Z,19.21
2023-04-02T11:02:56.266Z,19.81
2023-04-02T11:05:31.791Z,19.94
2023-04-02T11:08:08.070Z,20.07
2023-04-02T11:10:41.438Z,20.02
2023-04-02T11:13:18.725Z,20.54
2023-04-02T11:15:47.138Z,21.16
2023-04-02T11:18:28.396Z,21.13
2023-04-02T11:21:02.612Z,20.62
2023-04-02T11:23:34.899Z,19.57
2023-04-02T11:26:42.781Z,18.85
2023-04-02T11:29:21.376Z,18.65
2023-04-02T11:31:52.105Z,19.38
2023-04-02T11:35:05.834Z,19.65
2023-04-02T11:37:38.310Z,19.77
2023-04-02T11:40:58.172Z,20.22
2023-04-02T11:43:52.045Z,20.48
2023-04-02T11:46:46.980Z,19.83
2023-04-02T11:49:39.694Z,20.19
2023-04-02T11:52:29.211Z,19.99
2023-04-02T11:55:00.941Z,20.42
2023-04-02T11:57:48.071Z,20.91
2023-04-02T12:00:29.191Z,21.64
2023-04-02T12:03:15.486Z,22.01
2023-04-02T12:05:50.930Z,22.19
2023-04-02T12:08:47.229Z,22.41
2023-04-02T12:11:33.427Z,22.40
2023-04-02T12:14:02.167Z,22.49
2023-04-02T12:16:34.999Z,22.47
2023-04-02T12:19:10.595Z,22.54
2023-04-02T12:21:39.893Z,22.60
2023-04-02T12:24:18.932Z,22.82
2023-04-02T12:26:47.443Z,22.93
2023-04-02T12:29:26.274Z,23.11
2023-04-02T12:31:56.595Z,22.88
2023-04-02T12:34:28.316Z,22.41
2023-04-02T12:36:59.689Z,22.29
2023-04-02T12:39:28.432Z,22.68
2023-04-02T12:41:57.751Z,22.94
2023-04-02T12:44:28.240Z,23.03
2023-04-02T12:46:57.916Z,23.36
2023-04-02T12:49:35.516Z,23.44
2023-04-02T12:52:05.661Z,23.55
2023-04-02T12:54:39.375Z,23.61
2023-04-02T12:57:39.039Z,23.52
2023-04-02T13:00:33.746Z,23.00
2023-04-02T13:03:14.526Z,22.94
2023-04-02T13:05:48.298Z,23.03
2023-04-02T13:08:23.581Z,22.87
2023-04-02T13:10:57.831Z,22.92
2023-04-02T13:13:33.941Z,23.26
2023-04-02T13:16:04.689Z,23.30
2023-04-02T13:18:35.921Z,22.86
2023-04-02T13:21:07.267Z,22.69
2023-04-02T13:23:38.015Z,22.71
2023-04-02T13:26:19.128Z,22.71
2023-04-02T13:29:01.110Z,22.67
2023-04-02T13:31:30.210Z,22.32
2023-04-02T13:33:58.708Z,22.36
2023-04-02T13:36:29.563Z,22.79
2023-04-02T13:38:58.270Z,22.90
2023-04-02T13:41:28.473Z,23.01
2023-04-02T13:43:59.807Z,23.23
2023-04-02T13:46:30.423Z,23.39
2023-04-02T13:48:59.779Z,22.98
2023-04-02T13:51:37.176Z,22.77
2023-04-02T13:54:10.163Z,22.88
2023-04-02T13:56:39.575Z,22.73
2023-04-02T13:59:07.888Z,22.53
2023-04-02T14:01:37.493Z,22.47
2023-04-02T14:04:07.332Z,22.55
2023-04-02T14:06:58.139Z,22.69
2023-04-02T14:09:33.327Z,22.75
2023-04-02T14:12:10.240Z,22.78
2023-04-02T14:15:05.097Z,22.44
2023-04-02T14:17:47.591Z,22.41
2023-04-02T14:20:29.875Z,22.49
2023-04-02T14:23:15.738Z,22.66
2023-04-02T14:25:49.326Z,22.52
2023-04-02T14:28:27.291Z,22.49
2023-04-02T14:31:04.322Z,22.34
2023-04-02T14:33:40.379Z,22.16
2023-04-02T14:36:18.049Z,21.79
2023-04-02T14:38:56.216Z,21.72
2023-04-02T14:41:30.483Z,21.70
2023-04-02T14:44:02.159Z,21.47
2023-04-02T14:46:34.897Z,21.70
2023-04-02T14:49:16.739Z,21.89
2023-04-02T14:51:49.815Z,22.04
2023-04-02T14:54:31.324Z,22.26
2023-04-02T14:57:06.242Z,22.19
2023-04-02T14:59:39.122Z,21.98
2023-04-02T15:02:15.572Z,21.66
2023-04-02T15:04:47.769Z,21.33
2023-04-02T15:07:27.248Z,20.89
2023-04-02T15:10:07.496Z,20.83
2023-04-02T15:12:39.566Z,20.66
2023-04-02T15:15:29.827Z,20.48
2023-04-02T15:18:10.728Z,20.39
2023-04-02T15:20:46.677Z,20.43
2023-04-02T15:23:24.212Z,20.54
2023-04-02T15:26:03.261Z,20.56
2023-04-02T15:28:35.800Z,20.51
2023-04-02T15:31:07.929Z,20.42
2023-04-02T15:33:43.386Z,20.39
2023-04-02T15:36:44.640Z,20.39
2023-04-02T15:39:36.090Z,20.47
2023-04-02T15:42:16.384Z,20.57
2023-04-02T15:44:55.449Z,20.49
2023-04-02T15:47:36.832Z,20.40
2023-04-02T15:50:25.050Z,20.39
2023-04-02T15:52:59.905Z,20.29
2023-04-02T15:55:37.629Z,20.19
2023-04-02T15:58:21.989Z,19.95
2023-04-02T16:00:59.481Z,19.95
2023-04-02T16:03:46.240Z,19.62
2023-04-02T16:06:44.924Z,19.63
2023-04-02T16:09:23.171Z,19.75
2023-04-02T16:11:59.816Z,19.73
2023-04-02T16:14:31.611Z,19.72
2023-04-02T16:17:17.588Z,19.53
2023-04-02T16:19:54.202Z,19.37
2023-04-02T16:22:25.816Z,19.24
2023-04-02T16:25:00.583Z,19.16
2023-04-02T16:27:32.989Z,19.10
2023-04-02T16:30:30.307Z,18.88
2023-04-02T16:33:09.821Z,18.80
2023-04-02T16:35:46.460Z,18.61
2023-04-02T16:38:31.682Z,18.30
2023-04-02T16:41:09.904Z,18.22
2023-04-02T16:43:47.198Z,18.06
2023-04-02T16:46:38.177Z,18.05
2023-04-02T16:49:21.288Z,17.81
2023-04-02T16:51:59.637Z,17.73
2023-04-02T16:54:34.447Z,17.64
2023-04-02T16:57:17.420Z,17.56
2023-04-02T16:59:54.463Z,17.49
2023-04-02T17:02:34.229Z,17.38
2023-04-02T17:05:11.232Z,17.33
2023-04-02T17:07:46.106Z,17.29
2023-04-02T17:10:31.138Z,17.07
2023-04-02T17:13:08.660Z,16.94
2023-04-02T17:15:39.455Z,16.96
2023-04-02T17:18:17.518Z,16.81
2023-04-02T17:20:46.923Z,16.74
2023-04-02T17:23:18.013Z,16.70
2023-04-02T17:25:51.639Z,16.57
2023-04-02T17:28:25.633Z,16.46
2023-04-02T17:30:56.835Z,16.35
2023-04-02T17:33:28.527Z,16.26
2023-04-02T17:36:11.440Z,16.01
2023-04-02T17:38:45.893Z,15.83
2023-04-02T17:41:19.169Z,15.73
2023-04-02T17:43:53.065Z,15.61
2023-04-02T17:46:31.302Z,15.44
2023-04-02T17:49:07.043Z,15.31
2023-04-02T17:51:40.729Z,15.19
2023-04-02T17:54:25.566Z,15.09
2023-04-02T17:57:11.854Z,14.98
2023-04-02T17:59:52.723Z,14.87
2023-04-02T18:02:38.266Z,14.71
2023-04-02T18:05:17.840Z,14.57
2023-04-02T18:07:53.858Z,14.44
2023-04-02T18:10:28.326Z,14.34
2023-04-02T18:12:59.334Z,14.25
2023-04-02T18:15:59.118Z,14.05
2023-04-02T18:18:46.513Z,13.89
2023-04-02T18:21:26.026Z,13.86
2023-04-02T18:24:13.872Z,13.77
2023-04-02T18:26:48.958Z,13.71
2023-04-02T18:29:28.885Z,13.68
2023-04-02T18:32:05.894Z,13.58
2023-04-02T18:34:52.066Z,13.51
2023-04-02T18:37:29.414Z,13.45
2023-04-02T18:40:20.119Z,13.35
2023-04-02T18:42:59.824Z,13.27
2023-04-02T18:45:40.943Z,13.21
2023-04-02T18:48:21.019Z,13.17
2023-04-02T18:50:50.259Z,13.12
2023-04-02T18:53:22.876Z,13.05
2023-04-02T18:55:55.841Z,12.97
2023-04-02T18:58:28.103Z,12.88
2023-04-02T19:00:57.373Z,12.81
2023-04-02T19:03:30.449Z,12.73
2023-04-02T19:06:03.078Z,12.67
2023-04-02T19:08:39.565Z,12.58
2023-04-02T19:11:13.193Z,12.51
2023-04-02T19:13:41.672Z,12.48
2023-04-02T19:16:33.762Z,12.38
2023-04-02T19:19:09.917Z,12.34
2023-04-02T19:21:48.517Z,12.29
2023-04-02T19:24:37.812Z,12.16
2023-04-02T19:27:13.293Z,12.15
2023-04-02T19:29:54.826Z,12.07
2023-04-02T19:32:34.677Z,12.01
2023-04-02T19:35:15.627Z,11.96
2023-04-02T19:37:50.539Z,11.93
2023-04-02T19:40:34.106Z,11.83
2023-04-02T19:43:02.509Z,11.76
2023-04-02T19:45:38.860Z,11.67
2023-04-02T19:48:14.251Z,11.63
2023-04-02T19:50:43.128Z,11.60
2023-04-02T19:53:11.602Z,11.56
2023-04-02T19:55:41.597Z,11.51
2023-04-02T19:58:19.678Z,11.44
2023-04-02T20:00:48.408Z,11.39
2023-04-02T20:03:16.668Z,11.33
2023-04-02T20:05:45.065Z,11.28
2023-04-02T20:08:13.422Z,11.23
2023-04-02T20:10:43.670Z,11.17
2023-04-02T20:13:12.064Z,11.11
2023-04-02T20:15:41.172Z,11.04
2023-04-02T20:18:10.591Z,10.94
2023-04-02T20:20:40.194Z,10.88
2023-04-02T20:23:08.467Z,10.84
2023-04-02T20:25:36.815Z,10.78
2023-04-02T20:28:07.548Z,10.75
2023-04-02T20:30:36.323Z,10.69
2023-04-02T20:33:04.985Z,10.60
2023-04-02T20:35:34.635Z,10.56
2023-04-02T20:38:03.587Z,10.50
2023-04-02T20:40:32.648Z,10.49
2023-04-02T20:43:00.883Z,10.37
2023-04-02T20:45:30.749Z,10.36
2023-04-02T20:47:59.047Z,10.34
2023-04-02T20:50:27.654Z,10.35
2023-04-02T20:52:56.561Z,10.31
2023-04-02T20:55:24.861Z,10.29
2023-04-02T20:57:53.194Z,10.28
2023-04-02T21:00:22.652Z,10.25
2023-04-02T21:02:52.339Z,10.24
2023-04-02T21:05:20.716Z,10.25
2023-04-02T21:07:49.462Z,10.22
2023-04-02T21:10:18.020Z,10.19
2023-04-02T21:12:46.413Z,10.16
2023-04-02T21:15:14.691Z,10.12
2023-04-02T21:17:43.148Z,10.01
2023-04-02T21:20:13.748Z,9.99
2023-04-02T21:22:42.103Z,9.90
2023-04-02T21:25:11.263Z,9.92
2023-04-02T21:27:39.630Z,9.93
2023-04-02T21:30:09.299Z,10.00
2023-04-02T21:32:37.689Z,9.96
2023-04-02T21:35:07.671Z,9.93
2023-04-02T21:37:37.401Z,9.94
2023-04-02T21:40:06.448Z,9.93
2023-04-02T21:42:34.788Z,9.86
2023-04-02T21:45:03.180Z,9.81
2023-04-02T21:47:31.464Z,9.84
2023-04-02T21:49:59.823Z,9.79
2023-04-02T21:52:28.200Z,9.83
2023-04-02T21:54:57.897Z,9.83
2023-04-02T21:57:26.326Z,9.80
2023-04-02T21:59:57.020Z,9.82
2023-04-02T22:02:25.716Z,9.76
2023-04-02T22:04:54.241Z,9.70
2023-04-02T22:07:22.686Z,9.67
2023-04-02T22:09:51.059Z,9.62
2023-04-02T22:12:20.904Z,9.57
2023-04-02T22:14:50.887Z,9.55
2023-04-02T22:17:19.153Z,9.52
2023-04-02T22:19:47.440Z,9.52
2023-04-02T22:22:15.870Z,9.44
2023-04-02T22:24:44.147Z,9.45
2023-04-02T22:27:12.796Z,9.40
2023-04-02T22:29:42.501Z,9.40
2023-04-02T22:32:10.766Z,9.38
2023-04-02T22:34:45.556Z,9.31
2023-04-02T22:37:14.057Z,9.30
2023-04-02T22:39:42.279Z,9.24
2023-04-02T22:42:10.723Z,9.24
2023-04-02T22:44:39.040Z,9.23
2023-04-02T22:47:08.732Z,9.25
2023-04-02T22:49:37.039Z,9.22
2023-04-02T22:52:06.141Z,9.17
2023-04-02T22:54:34.425Z,9.14
2023-04-02T22:57:03.120Z,9.09
2023-04-02T22:59:31.433Z,9.05
2023-04-02T23:01:59.876Z,9.01
2023-04-02T23:04:29.635Z,9.03
2023-04-02T23:06:58.014Z,9.07
2023-04-02T23:09:26.509Z,9.07
2023-04-02T23:11:54.780Z,9.05
2023-04-02T23:14:23.146Z,8.97
2023-04-02T23:16:51.432Z,8.90
2023-04-02T23:19:19.698Z,8.94
2023-04-02T23:21:49.638Z,8.95
2023-04-02T23:24:18.106Z,8.88
2023-04-02T23:26:46.415Z,8.90
2023-04-02T23:29:14.461Z,8.90
2023-04-02T23:31:42.538Z,8.81
2023-04-02T23:34:11.004Z,8.78
2023-04-02T23:36:39.279Z,8.73
2023-04-02T23:39:12.602Z,8.64
2023-04-02T23:41:42.434Z,8.62
2023-04-02T23:44:10.894Z,8.65
2023-04-02T23:46:39.060Z,8.66
2023-04-02T23:49:07.237Z,8.62
2023-04-02T23:51:35.254Z,8.49
2023-04-02T23:54:03.425Z,8.48
2023-04-02T23:56:32.871Z,8.49
2023-04-02T23:59:00.932Z,8.52
